Estill, Missouri
Current Conditions -  °F | °C
As of 10:15 PM on Friday 19 Dec 2014 (Local Time) from KVER Reporting Station
Haze Haze  
Wind Chill: 36°   Ceiling: 1000
Heat Index: 36°   Visibility: 5mi
Dew Point: 35°   Wind: 3mph
Humidity: 97%   Direction: 120°ESE
Pressure: 30.23"   Gusts: NA
Location:  39.0335°N, 92.7186°W
Report Text: KVER 200415Z AUTO 12003KT 5SM BR OVC010 02/02 A3023 RMK AO2 T00200016
Loading
Personal Weather Stations






























Interactive Weather Map New forecast layout! Learn more

10-Day Weather Forecast

Advertisements
Track Severe Weather on mobile